Weather at Cincinnati Municipal Airport Lunken Field

Public forecast

Using degrees Fahrenheit for public forecast. Weather courtesy of forecast.io.

Current aviation weather report (METAR) for Cincinnati Municipal Airport Lunken Field

Retrieved 2020/11/23 23:53 UTC (14 minutes ago):

KLUK 232353Z 04003KT 10SM CLR 06/01 A3035 RMK AO2 SLP281 T00560006 10106 20056 51017

Aviation forecast (TAF) for Cincinnati Municipal Airport Lunken Field

Retrieved 2020-11-24 00:24 UTC (0 seconds ago):

TAF KLUK 232321Z 2400/2424 VRB05KT P6SM BKN250 FM241100 11005KT P6SM OVC070 FM241400 13008KT P6SM BKN070 FM242000 15008G13KT P6SM FEW070 BKN250